sensor_id;sensor_type;location;lat;lon;timestamp;pressure;altitude;pressure_sealevel;temperature;humidity
15260;BME280;34462;51.368;12.364;2023-06-04T00:01:50;20313.84;;;-141.84;44.42
15260;BME280;34462;51.368;12.364;2023-06-04T00:04:18;20338.22;;;-141.84;44.42
15260;BME280;34462;51.368;12.364;2023-06-04T00:06:47;20344.31;;;-141.84;44.69
15260;BME280;34462;51.368;12.364;2023-06-04T00:09:15;20330.09;;;-141.84;45.34
15260;BME280;34462;51.368;12.364;2023-06-04T00:11:44;20305.69;;;-141.84;44.69
15260;BME280;34462;51.368;12.364;2023-06-04T00:14:15;20352.44;;;-141.84;44.69
15260;BME280;34462;51.368;12.364;2023-06-04T00:16:43;20348.38;;;-141.84;44.86
15260;BME280;34462;51.368;12.364;2023-06-04T00:19:12;20334.16;;;-141.84;44.85
15260;BME280;34462;51.368;12.364;2023-06-04T00:21:40;20338.22;;;-141.84;45.14
15260;BME280;34462;51.368;12.364;2023-06-04T00:24:09;20311.78;;;-141.84;45.02
15260;BME280;34462;51.368;12.364;2023-06-04T00:26:40;20269.13;;;-141.84;45.52
15260;BME280;34462;51.368;12.364;2023-06-04T00:29:08;20289.44;;;-141.84;45.48
15260;BME280;34462;51.368;12.364;2023-06-04T00:31:38;20267.09;;;-141.84;45.53
15260;BME280;34462;51.368;12.364;2023-06-04T00:34:07;20299.59;;;-141.84;45.49
15260;BME280;34462;51.368;12.364;2023-06-04T00:36:36;20305.69;;;-141.84;45.62
15260;BME280;34462;51.368;12.364;2023-06-04T00:39:04;20273.19;;;-141.84;45.81
15260;BME280;34462;51.368;12.364;2023-06-04T00:41:33;20281.31;;;-141.84;45.49
15260;BME280;34462;51.368;12.364;2023-06-04T00:44:01;20275.22;;;-141.84;45.76
15260;BME280;34462;51.368;12.364;2023-06-04T00:46:35;20228.47;;;-141.84;46.12
15260;BME280;34462;51.368;12.364;2023-06-04T00:49:06;20271.16;;;-141.84;46.03
15260;BME280;34462;51.368;12.364;2023-06-04T00:51:35;20230.50;;;-141.84;46.26
15260;BME280;34462;51.368;12.364;2023-06-04T00:54:04;20271.16;;;-141.84;46.33
15260;BME280;34462;51.368;12.364;2023-06-04T00:56:36;20248.78;;;-141.84;46.87
15260;BME280;34462;51.368;12.364;2023-06-04T00:59:06;20271.16;;;-141.84;46.54
15260;BME280;34462;51.368;12.364;2023-06-04T01:01:39;20244.72;;;-141.84;46.62
15260;BME280;34462;51.368;12.364;2023-06-04T01:04:16;20260.97;;;-141.84;46.69
15260;BME280;34462;51.368;12.364;2023-06-04T01:06:49;20234.56;;;-141.84;46.87
15260;BME280;34462;51.368;12.364;2023-06-04T01:09:19;20246.75;;;-141.84;46.93
15260;BME280;34462;51.368;12.364;2023-06-04T01:11:48;20232.53;;;-141.84;46.74
15260;BME280;34462;51.368;12.364;2023-06-04T01:14:16;20228.47;;;-141.84;46.91
15260;BME280;34462;51.368;12.364;2023-06-04T01:16:49;20230.50;;;-141.84;46.93
15260;BME280;34462;51.368;12.364;2023-06-04T01:19:37;20195.94;;;-141.84;47.17
15260;BME280;34462;51.368;12.364;2023-06-04T01:22:32;20183.75;;;-141.84;47.69
15260;BME280;34462;51.368;12.364;2023-06-04T01:25:04;20181.72;;;-141.84;47.33
15260;BME280;34462;51.368;12.364;2023-06-04T01:27:34;20197.97;;;-141.84;47.34
15260;BME280;34462;51.368;12.364;2023-06-04T01:30:04;20167.47;;;-141.84;47.53
15260;BME280;34462;51.368;12.364;2023-06-04T01:32:32;20161.38;;;-141.84;47.45
15260;BME280;34462;51.368;12.364;2023-06-04T01:35:06;20171.56;;;-141.84;47.90
15260;BME280;34462;51.368;12.364;2023-06-04T01:37:36;20187.81;;;-141.84;47.74
15260;BME280;34462;51.368;12.364;2023-06-04T01:40:06;20197.97;;;-141.84;47.71
15260;BME280;34462;51.368;12.364;2023-06-04T01:42:35;20210.16;;;-141.84;47.47
15260;BME280;34462;51.368;12.364;2023-06-04T01:45:04;20200.00;;;-141.84;47.44
15260;BME280;34462;51.368;12.364;2023-06-04T01:47:33;20179.69;;;-141.84;47.69
15260;BME280;34462;51.368;12.364;2023-06-04T01:50:04;20151.22;;;-141.84;48.00
15260;BME280;34462;51.368;12.364;2023-06-04T01:52:36;20173.59;;;-141.84;47.81
15260;BME280;34462;51.368;12.364;2023-06-04T01:55:05;20147.16;;;-141.84;48.17
15260;BME280;34462;51.368;12.364;2023-06-04T01:57:34;20122.78;;;-141.84;48.29
15260;BME280;34462;51.368;12.364;2023-06-04T02:00:04;20173.59;;;-141.84;48.24
15260;BME280;34462;51.368;12.364;2023-06-04T02:02:35;20141.06;;;-141.84;48.15
15260;BME280;34462;51.368;12.364;2023-06-04T02:05:07;20143.09;;;-141.84;48.24
15260;BME280;34462;51.368;12.364;2023-06-04T02:07:36;20185.78;;;-141.84;47.81
15260;BME280;34462;51.368;12.364;2023-06-04T02:10:06;20163.41;;;-141.84;48.29
15260;BME280;34462;51.368;12.364;2023-06-04T02:12:37;20159.34;;;-141.84;48.36
15260;BME280;34462;51.368;12.364;2023-06-04T02:15:07;20151.22;;;-141.84;48.31
15260;BME280;34462;51.368;12.364;2023-06-04T02:17:36;20128.88;;;-141.84;48.19
15260;BME280;34462;51.368;12.364;2023-06-04T02:20:11;20151.22;;;-141.84;48.42
15260;BME280;34462;51.368;12.364;2023-06-04T02:22:40;20149.19;;;-141.84;48.33
15260;BME280;34462;51.368;12.364;2023-06-04T02:25:09;20151.22;;;-141.84;48.37
15260;BME280;34462;51.368;12.364;2023-06-04T02:27:37;20143.09;;;-141.84;48.07
15260;BME280;34462;51.368;12.364;2023-06-04T02:30:07;20141.06;;;-141.84;48.54
15260;BME280;34462;51.368;12.364;2023-06-04T02:32:35;20094.31;;;-141.84;48.91
15260;BME280;34462;51.368;12.364;2023-06-04T02:35:05;20118.69;;;-141.84;48.95
15260;BME280;34462;51.368;12.364;2023-06-04T02:37:34;20108.53;;;-141.84;48.96
15260;BME280;34462;51.368;12.364;2023-06-04T02:40:03;20092.28;;;-141.84;49.35
15260;BME280;34462;51.368;12.364;2023-06-04T02:42:32;20102.44;;;-141.84;49.67
15260;BME280;34462;51.368;12.364;2023-06-04T02:45:01;20102.44;;;-141.84;49.83
15260;BME280;34462;51.368;12.364;2023-06-04T02:47:29;20124.81;;;-141.84;49.41
15260;BME280;34462;51.368;12.364;2023-06-04T02:49:58;20088.22;;;-141.84;50.08
15260;BME280;34462;51.368;12.364;2023-06-04T02:52:26;20100.41;;;-141.84;49.67
15260;BME280;34462;51.368;12.364;2023-06-04T02:54:56;20102.44;;;-141.84;50.22
15260;BME280;34462;51.368;12.364;2023-06-04T02:57:25;20114.63;;;-141.84;50.09
15260;BME280;34462;51.368;12.364;2023-06-04T02:59:53;20100.41;;;-141.84;49.93
15260;BME280;34462;51.368;12.364;2023-06-04T03:02:22;20074.00;;;-141.84;50.60
15260;BME280;34462;51.368;12.364;2023-06-04T03:04:51;20088.22;;;-141.84;50.34
15260;BME280;34462;51.368;12.364;2023-06-04T03:07:22;20069.94;;;-141.84;50.38
15260;BME280;34462;51.368;12.364;2023-06-04T03:09:51;20084.16;;;-141.84;50.91
15260;BME280;34462;51.368;12.364;2023-06-04T03:12:20;20051.63;;;-141.84;51.12
15260;BME280;34462;51.368;12.364;2023-06-04T03:14:49;20049.59;;;-141.84;51.46
15260;BME280;34462;51.368;12.364;2023-06-04T03:17:17;20045.53;;;-141.84;51.58
15260;BME280;34462;51.368;12.364;2023-06-04T03:19:46;20057.72;;;-141.84;51.21
15260;BME280;34462;51.368;12.364;2023-06-04T03:22:15;20019.13;;;-141.84;51.37
15260;BME280;34462;51.368;12.364;2023-06-04T03:24:43;20094.31;;;-141.84;50.76
15260;BME280;34462;51.368;12.364;2023-06-04T03:27:12;20084.16;;;-141.84;50.50
15260;BME280;34462;51.368;12.364;2023-06-04T03:29:42;20090.25;;;-141.84;51.04
15260;BME280;34462;51.368;12.364;2023-06-04T03:32:10;20067.88;;;-141.84;51.24
15260;BME280;34462;51.368;12.364;2023-06-04T03:34:40;20055.69;;;-141.84;51.30
15260;BME280;34462;51.368;12.364;2023-06-04T03:37:08;20057.72;;;-141.84;51.24
15260;BME280;34462;51.368;12.364;2023-06-04T03:39:37;20076.03;;;-141.84;51.50
15260;BME280;34462;51.368;12.364;2023-06-04T03:42:05;20082.13;;;-141.84;51.42
15260;BME280;34462;51.368;12.364;2023-06-04T03:44:34;20039.44;;;-141.84;51.68
15260;BME280;34462;51.368;12.364;2023-06-04T03:47:04;20047.56;;;-141.84;51.75
15260;BME280;34462;51.368;12.364;2023-06-04T03:49:33;20088.22;;;-141.84;51.12
15260;BME280;34462;51.368;12.364;2023-06-04T03:52:01;20069.94;;;-141.84;50.62
15260;BME280;34462;51.368;12.364;2023-06-04T03:54:30;20118.69;;;-141.84;50.83
15260;BME280;34462;51.368;12.364;2023-06-04T03:56:58;20094.31;;;-141.84;51.18
15260;BME280;34462;51.368;12.364;2023-06-04T03:59:27;20067.88;;;-141.84;51.48
15260;BME280;34462;51.368;12.364;2023-06-04T04:01:56;20080.09;;;-141.84;50.84
15260;BME280;34462;51.368;12.364;2023-06-04T04:04:25;20078.06;;;-141.84;51.16
15260;BME280;34462;51.368;12.364;2023-06-04T04:06:54;20080.09;;;-141.84;51.16
15260;BME280;34462;51.368;12.364;2023-06-04T04:09:22;20078.06;;;-141.84;51.59
15260;BME280;34462;51.368;12.364;2023-06-04T04:11:51;20098.38;;;-141.84;51.48
15260;BME280;34462;51.368;12.364;2023-06-04T04:14:19;20094.31;;;-141.84;51.51
15260;BME280;34462;51.368;12.364;2023-06-04T04:16:48;20128.88;;;-141.84;51.30
15260;BME280;34462;51.368;12.364;2023-06-04T04:19:17;20096.34;;;-141.84;50.95
15260;BME280;34462;51.368;12.364;2023-06-04T04:21:46;20116.66;;;-141.84;51.15
15260;BME280;34462;51.368;12.364;2023-06-04T04:24:23;20132.94;;;-141.84;50.64
15260;BME280;34462;51.368;12.364;2023-06-04T04:26:51;20126.84;;;-141.84;50.92
15260;BME280;34462;51.368;12.364;2023-06-04T04:29:21;20153.25;;;-141.84;50.44
15260;BME280;34462;51.368;12.364;2023-06-04T04:31:52;20139.03;;;-141.84;50.54
15260;BME280;34462;51.368;12.364;2023-06-04T04:34:20;20147.16;;;-141.84;50.06
15260;BME280;34462;51.368;12.364;2023-06-04T04:36:50;20155.28;;;-141.84;50.18
15260;BME280;34462;51.368;12.364;2023-06-04T04:39:21;20175.63;;;-141.84;49.94
15260;BME280;34462;51.368;12.364;2023-06-04T04:41:51;20232.53;;;-141.84;48.96
15260;BME280;34462;51.368;12.364;2023-06-04T04:44:20;20277.25;;;-141.84;48.93
15260;BME280;34462;51.368;12.364;2023-06-04T04:46:48;20303.66;;;-141.84;48.46
15260;BME280;34462;51.368;12.364;2023-06-04T04:49:17;20468.31;;;-141.84;46.19
15260;BME280;34462;51.368;12.364;2023-06-04T04:51:45;20830.16;;;-141.84;42.78
15260;BME280;34462;51.368;12.364;2023-06-04T04:54:15;21232.69;;;-141.84;39.04
15260;BME280;34462;51.368;12.364;2023-06-04T04:56:44;21614.94;;;-141.84;35.38
15260;BME280;34462;51.368;12.364;2023-06-04T04:59:12;22062.28;;;-141.84;33.00
15260;BME280;34462;51.368;12.364;2023-06-04T05:01:41;22391.72;;;-141.84;30.65
15260;BME280;34462;51.368;12.364;2023-06-04T05:04:09;22473.06;;;-141.84;30.23
15260;BME280;34462;51.368;12.364;2023-06-04T05:06:38;22711.03;;;-141.84;29.17
15260;BME280;34462;51.368;12.364;2023-06-04T05:09:06;22914.41;;;-141.84;28.78
15260;BME280;34462;51.368;12.364;2023-06-04T05:11:37;22965.28;;;-141.84;28.09
15260;BME280;34462;51.368;12.364;2023-06-04T05:14:05;22987.63;;;-141.84;28.38
15260;BME280;34462;51.368;12.364;2023-06-04T05:16:34;23166.63;;;-141.84;27.44
15260;BME280;34462;51.368;12.364;2023-06-04T05:19:03;23140.19;;;-141.84;27.59
15260;BME280;34462;51.368;12.364;2023-06-04T05:21:32;22991.72;;;-141.84;27.98
15260;BME280;34462;51.368;12.364;2023-06-04T05:24:00;22981.53;;;-141.84;27.54
15260;BME280;34462;51.368;12.364;2023-06-04T05:26:29;22770.00;;;-141.84;28.38
15260;BME280;34462;51.368;12.364;2023-06-04T05:28:59;22739.50;;;-141.84;28.71
15260;BME280;34462;51.368;12.364;2023-06-04T05:31:28;22637.81;;;-141.84;29.21
15260;BME280;34462;51.368;12.364;2023-06-04T05:33:56;22566.63;;;-141.84;28.75
15260;BME280;34462;51.368;12.364;2023-06-04T05:36:26;22141.59;;;-141.84;29.85
15260;BME280;34462;51.368;12.364;2023-06-04T05:38:55;21810.13;;;-141.84;31.78
15260;BME280;34462;51.368;12.364;2023-06-04T05:41:24;21549.84;;;-141.84;33.72
15260;BME280;34462;51.368;12.364;2023-06-04T05:43:53;21383.13;;;-141.84;34.60
15260;BME280;34462;51.368;12.364;2023-06-04T05:46:23;21318.06;;;-141.84;35.53
15260;BME280;34462;51.368;12.364;2023-06-04T05:48:52;21354.66;;;-141.84;35.60
15260;BME280;34462;51.368;12.364;2023-06-04T05:51:21;21226.59;;;-141.84;36.15
15260;BME280;34462;51.368;12.364;2023-06-04T05:53:49;21204.22;;;-141.84;36.50
15260;BME280;34462;51.368;12.364;2023-06-04T05:56:18;21165.59;;;-141.84;37.57
15260;BME280;34462;51.368;12.364;2023-06-04T05:58:51;21145.25;;;-141.84;37.19
15260;BME280;34462;51.368;12.364;2023-06-04T06:01:20;21159.50;;;-141.84;37.43
15260;BME280;34462;51.368;12.364;2023-06-04T06:03:50;21143.22;;;-141.84;37.50
15260;BME280;34462;51.368;12.364;2023-06-04T06:06:19;21173.72;;;-141.84;37.83
15260;BME280;34462;51.368;12.364;2023-06-04T06:08:48;21129.00;;;-141.84;37.73
15260;BME280;34462;51.368;12.364;2023-06-04T06:11:16;21171.69;;;-141.84;37.83
15260;BME280;34462;51.368;12.364;2023-06-04T06:13:45;21147.28;;;-141.84;37.21
15260;BME280;34462;51.368;12.364;2023-06-04T06:16:13;21167.63;;;-141.84;37.62
15260;BME280;34462;51.368;12.364;2023-06-04T06:18:44;21185.91;;;-141.84;37.48
15260;BME280;34462;51.368;12.364;2023-06-04T06:21:14;21175.75;;;-141.84;37.72
15260;BME280;34462;51.368;12.364;2023-06-04T06:23:42;21159.50;;;-141.84;37.10
15260;BME280;34462;51.368;12.364;2023-06-04T06:26:11;21179.81;;;-141.84;37.31
15260;BME280;34462;51.368;12.364;2023-06-04T06:28:40;21147.28;;;-141.84;37.47
15260;BME280;34462;51.368;12.364;2023-06-04T06:31:09;21177.78;;;-141.84;37.82
15260;BME280;34462;51.368;12.364;2023-06-04T06:33:38;21265.22;;;-141.84;37.59
15260;BME280;34462;51.368;12.364;2023-06-04T06:36:09;21236.75;;;-141.84;37.25
15260;BME280;34462;51.368;12.364;2023-06-04T06:38:40;21248.94;;;-141.84;36.53
15260;BME280;34462;51.368;12.364;2023-06-04T06:41:08;21240.81;;;-141.84;36.85
15260;BME280;34462;51.368;12.364;2023-06-04T06:43:37;21277.41;;;-141.84;36.96
15260;BME280;34462;51.368;12.364;2023-06-04T06:46:05;21269.28;;;-141.84;36.35
15260;BME280;34462;51.368;12.364;2023-06-04T06:48:34;21240.81;;;-141.84;36.92
15260;BME280;34462;51.368;12.364;2023-06-04T06:51:03;21283.50;;;-141.84;36.74
15260;BME280;34462;51.368;12.364;2023-06-04T06:53:32;21253.00;;;-141.84;36.49
15260;BME280;34462;51.368;12.364;2023-06-04T06:56:01;21283.50;;;-141.84;36.64
15260;BME280;34462;51.368;12.364;2023-06-04T06:58:30;21314.00;;;-141.84;36.93
15260;BME280;34462;51.368;12.364;2023-06-04T07:00:59;21305.88;;;-141.84;36.39
15260;BME280;34462;51.368;12.364;2023-06-04T07:03:27;21307.91;;;-141.84;36.79
15260;BME280;34462;51.368;12.364;2023-06-04T07:05:56;21352.63;;;-141.84;37.59
15260;BME280;34462;51.368;12.364;2023-06-04T07:08:24;21346.53;;;-141.84;36.50
15260;BME280;34462;51.368;12.364;2023-06-04T07:10:53;21364.84;;;-141.84;36.03
15260;BME280;34462;51.368;12.364;2023-06-04T07:13:23;21358.75;;;-141.84;36.37
15260;BME280;34462;51.368;12.364;2023-06-04T07:15:52;21370.94;;;-141.84;35.81
15260;BME280;34462;51.368;12.364;2023-06-04T07:18:20;21375.00;;;-141.84;35.55
15260;BME280;34462;51.368;12.364;2023-06-04T07:20:49;21344.50;;;-141.84;35.36
15260;BME280;34462;51.368;12.364;2023-06-04T07:23:22;21370.94;;;-141.84;35.84
15260;BME280;34462;51.368;12.364;2023-06-04T07:25:51;21399.41;;;-141.84;35.54
15260;BME280;34462;51.368;12.364;2023-06-04T07:28:19;21387.19;;;-141.84;36.10
15260;BME280;34462;51.368;12.364;2023-06-04T07:30:50;21370.94;;;-141.84;35.57
15260;BME280;34462;51.368;12.364;2023-06-04T07:33:18;21427.88;;;-141.84;35.10
15260;BME280;34462;51.368;12.364;2023-06-04T07:35:47;21417.69;;;-141.84;35.27
15260;BME280;34462;51.368;12.364;2023-06-04T07:38:15;21425.84;;;-141.84;34.95
15260;BME280;34462;51.368;12.364;2023-06-04T07:40:46;21417.69;;;-141.84;34.44
15260;BME280;34462;51.368;12.364;2023-06-04T07:43:15;21399.41;;;-141.84;34.06
15260;BME280;34462;51.368;12.364;2023-06-04T07:45:44;21401.44;;;-141.84;34.75
15260;BME280;34462;51.368;12.364;2023-06-04T07:48:14;21377.03;;;-141.84;35.02
15260;BME280;34462;51.368;12.364;2023-06-04T07:50:42;21464.47;;;-141.84;34.29
15260;BME280;34462;51.368;12.364;2023-06-04T07:53:11;21464.47;;;-141.84;34.05
15260;BME280;34462;51.368;12.364;2023-06-04T07:55:39;21458.38;;;-141.84;33.74
15260;BME280;34462;51.368;12.364;2023-06-04T07:58:07;21456.34;;;-141.84;33.18
15260;BME280;34462;51.368;12.364;2023-06-04T08:00:36;21438.03;;;-141.84;33.39
15260;BME280;34462;51.368;12.364;2023-06-04T08:03:05;21407.53;;;-141.84;33.82
15260;BME280;34462;51.368;12.364;2023-06-04T08:05:35;21399.41;;;-141.84;33.75
15260;BME280;34462;51.368;12.364;2023-06-04T08:08:03;21454.28;;;-141.84;33.05
15260;BME280;34462;51.368;12.364;2023-06-04T08:10:32;21440.06;;;-141.84;32.42
15260;BME280;34462;51.368;12.364;2023-06-04T08:13:01;21433.97;;;-141.84;32.72
15260;BME280;34462;51.368;12.364;2023-06-04T08:15:30;21440.06;;;-141.84;32.78
15260;BME280;34462;51.368;12.364;2023-06-04T08:17:58;21393.31;;;-141.84;32.24
15260;BME280;34462;51.368;12.364;2023-06-04T08:20:27;21417.69;;;-141.84;32.48
15260;BME280;34462;51.368;12.364;2023-06-04T08:22:56;21466.50;;;-141.84;32.11
15260;BME280;34462;51.368;12.364;2023-06-04T08:25:25;21444.13;;;-141.84;31.56
15260;BME280;34462;51.368;12.364;2023-06-04T08:27:54;21397.38;;;-141.84;31.90
15260;BME280;34462;51.368;12.364;2023-06-04T08:30:22;21440.06;;;-141.84;31.81
15260;BME280;34462;51.368;12.364;2023-06-04T08:32:52;21391.28;;;-141.84;32.41
15260;BME280;34462;51.368;12.364;2023-06-04T08:35:21;21436.00;;;-141.84;32.17
15260;BME280;34462;51.368;12.364;2023-06-04T08:37:49;21509.19;;;-141.84;32.22
15260;BME280;34462;51.368;12.364;2023-06-04T08:40:19;21490.91;;;-141.84;31.69
15260;BME280;34462;51.368;12.364;2023-06-04T08:42:49;21462.44;;;-141.84;31.94
15260;BME280;34462;51.368;12.364;2023-06-04T08:45:19;21497.00;;;-141.84;31.63
15260;BME280;34462;51.368;12.364;2023-06-04T08:47:49;21521.41;;;-141.84;31.76
15260;BME280;34462;51.368;12.364;2023-06-04T08:50:20;21517.31;;;-141.84;31.63
15260;BME280;34462;51.368;12.364;2023-06-04T08:52:53;21507.16;;;-141.84;30.69
15260;BME280;34462;51.368;12.364;2023-06-04T08:55:24;21486.81;;;-141.84;31.45
15260;BME280;34462;51.368;12.364;2023-06-04T08:57:53;21503.09;;;-141.84;31.40
15260;BME280;34462;51.368;12.364;2023-06-04T09:00:24;21525.47;;;-141.84;31.30
15260;BME280;34462;51.368;12.364;2023-06-04T09:02:52;21517.31;;;-141.84;30.97
15260;BME280;34462;51.368;12.364;2023-06-04T09:05:22;21521.41;;;-141.84;30.84
15260;BME280;34462;51.368;12.364;2023-06-04T09:07:53;21511.22;;;-141.84;31.23
15260;BME280;34462;51.368;12.364;2023-06-04T09:10:25;21529.53;;;-141.84;31.37
15260;BME280;34462;51.368;12.364;2023-06-04T09:13:01;21533.59;;;-141.84;31.40
15260;BME280;34462;51.368;12.364;2023-06-04T09:15:30;21543.75;;;-141.84;30.98
15260;BME280;34462;51.368;12.364;2023-06-04T09:17:58;21533.59;;;-141.84;30.85
15260;BME280;34462;51.368;12.364;2023-06-04T09:20:27;21549.84;;;-141.84;30.62
15260;BME280;34462;51.368;12.364;2023-06-04T09:22:57;21521.41;;;-141.84;30.89
15260;BME280;34462;51.368;12.364;2023-06-04T09:25:28;21564.09;;;-141.84;30.86
15260;BME280;34462;51.368;12.364;2023-06-04T09:28:04;21572.22;;;-141.84;30.62
15260;BME280;34462;51.368;12.364;2023-06-04T09:30:33;21598.66;;;-141.84;30.33
15260;BME280;34462;51.368;12.364;2023-06-04T09:33:07;21588.50;;;-141.84;29.94
15260;BME280;34462;51.368;12.364;2023-06-04T09:35:35;21558.00;;;-141.84;30.08
15260;BME280;34462;51.368;12.364;2023-06-04T09:38:05;21549.84;;;-141.84;30.38
15260;BME280;34462;51.368;12.364;2023-06-04T09:40:38;21582.38;;;-141.84;30.33
15260;BME280;34462;51.368;12.364;2023-06-04T09:43:07;21562.06;;;-141.84;30.45
15260;BME280;34462;51.368;12.364;2023-06-04T09:45:36;21586.47;;;-141.84;30.56
15260;BME280;34462;51.368;12.364;2023-06-04T09:48:04;21555.97;;;-141.84;30.44
15260;BME280;34462;51.368;12.364;2023-06-04T09:50:36;21680.00;;;-141.84;30.16
15260;BME280;34462;51.368;12.364;2023-06-04T09:53:13;21602.72;;;-141.84;30.11
15260;BME280;34462;51.368;12.364;2023-06-04T09:55:44;21592.56;;;-141.84;29.84
15260;BME280;34462;51.368;12.364;2023-06-04T09:58:13;21627.13;;;-141.84;29.93
15260;BME280;34462;51.368;12.364;2023-06-04T10:00:43;21608.81;;;-141.84;29.35
15260;BME280;34462;51.368;12.364;2023-06-04T10:03:15;21621.03;;;-141.84;28.83
15260;BME280;34462;51.368;12.364;2023-06-04T10:05:47;21584.44;;;-141.84;29.09
15260;BME280;34462;51.368;12.364;2023-06-04T10:08:16;21651.53;;;-141.84;29.33
15260;BME280;34462;51.368;12.364;2023-06-04T10:10:47;21712.53;;;-141.84;28.72
15260;BME280;34462;51.368;12.364;2023-06-04T10:13:18;21675.94;;;-141.84;28.79
15260;BME280;34462;51.368;12.364;2023-06-04T10:15:47;21684.06;;;-141.84;28.97
15260;BME280;34462;51.368;12.364;2023-06-04T10:18:17;21651.53;;;-141.84;29.09
15260;BME280;34462;51.368;12.364;2023-06-04T10:20:46;21692.19;;;-141.84;28.25
15260;BME280;34462;51.368;12.364;2023-06-04T10:23:16;21688.13;;;-141.84;27.71
15260;BME280;34462;51.368;12.364;2023-06-04T10:25:49;21724.72;;;-141.84;28.35
15260;BME280;34462;51.368;12.364;2023-06-04T10:28:20;21712.53;;;-141.84;28.67
15260;BME280;34462;51.368;12.364;2023-06-04T10:30:50;21765.38;;;-141.84;28.71
15260;BME280;34462;51.368;12.364;2023-06-04T10:33:26;21769.47;;;-141.84;27.70
15260;BME280;34462;51.368;12.364;2023-06-04T10:35:55;21783.69;;;-141.84;27.60
15260;BME280;34462;51.368;12.364;2023-06-04T10:38:24;21765.38;;;-141.84;27.35
15260;BME280;34462;51.368;12.364;2023-06-04T10:40:54;21757.25;;;-141.84;27.33
15260;BME280;34462;51.368;12.364;2023-06-04T10:43:30;21787.75;;;-141.84;27.49
15260;BME280;34462;51.368;12.364;2023-06-04T10:46:10;21791.81;;;-141.84;27.36
15260;BME280;34462;51.368;12.364;2023-06-04T10:48:49;21799.97;;;-141.84;28.00
15260;BME280;34462;51.368;12.364;2023-06-04T10:51:29;21830.47;;;-141.84;28.20
15260;BME280;34462;51.368;12.364;2023-06-04T10:54:00;21850.78;;;-141.84;27.12
15260;BME280;34462;51.368;12.364;2023-06-04T10:56:31;21877.22;;;-141.84;26.37
15260;BME280;34462;51.368;12.364;2023-06-04T10:59:11;21887.41;;;-141.84;26.13
15260;BME280;34462;51.368;12.364;2023-06-04T11:01:41;21879.25;;;-141.84;26.91
15260;BME280;34462;51.368;12.364;2023-06-04T11:04:22;21867.06;;;-141.84;26.76
15260;BME280;34462;51.368;12.364;2023-06-04T11:07:00;21881.28;;;-141.84;26.06
15260;BME280;34462;51.368;12.364;2023-06-04T11:09:30;21844.69;;;-141.84;25.99
15260;BME280;34462;51.368;12.364;2023-06-04T11:12:04;21869.09;;;-141.84;26.22
15260;BME280;34462;51.368;12.364;2023-06-04T11:14:33;21858.94;;;-141.84;26.52
15260;BME280;34462;51.368;12.364;2023-06-04T11:17:09;21852.81;;;-141.84;26.71
15260;BME280;34462;51.368;12.364;2023-06-04T11:19:39;21830.47;;;-141.84;27.25
15260;BME280;34462;51.368;12.364;2023-06-04T11:22:11;21832.50;;;-141.84;27.24
15260;BME280;34462;51.368;12.364;2023-06-04T11:24:40;21840.63;;;-141.84;27.30
15260;BME280;34462;51.368;12.364;2023-06-04T11:27:10;21834.53;;;-141.84;27.28
15260;BME280;34462;51.368;12.364;2023-06-04T11:29:58;21822.31;;;-141.84;27.57
15260;BME280;34462;51.368;12.364;2023-06-04T11:32:27;21860.97;;;-141.84;27.41
15260;BME280;34462;51.368;12.364;2023-06-04T11:35:03;21852.81;;;-141.84;27.72
15260;BME280;34462;51.368;12.364;2023-06-04T11:37:32;21850.78;;;-141.84;27.67
15260;BME280;34462;51.368;12.364;2023-06-04T11:40:02;21883.31;;;-141.84;28.20
15260;BME280;34462;51.368;12.364;2023-06-04T11:42:34;21917.91;;;-141.84;28.03
15260;BME280;34462;51.368;12.364;2023-06-04T11:45:04;21899.59;;;-141.84;28.25
15260;BME280;34462;51.368;12.364;2023-06-04T11:47:32;21903.66;;;-141.84;28.48
15260;BME280;34462;51.368;12.364;2023-06-04T11:50:01;21942.31;;;-141.84;28.44
15260;BME280;34462;51.368;12.364;2023-06-04T11:52:29;21913.84;;;-141.84;28.49
15260;BME280;34462;51.368;12.364;2023-06-04T11:54:59;21972.81;;;-141.84;28.11
15260;BME280;34462;51.368;12.364;2023-06-04T11:57:27;21917.91;;;-141.84;28.68
15260;BME280;34462;51.368;12.364;2023-06-04T11:59:57;21913.84;;;-141.84;28.43
15260;BME280;34462;51.368;12.364;2023-06-04T12:02:26;21901.63;;;-141.84;28.26
15260;BME280;34462;51.368;12.364;2023-06-04T12:04:55;21917.91;;;-141.84;28.32
15260;BME280;34462;51.368;12.364;2023-06-04T12:07:23;21919.94;;;-141.84;28.73
15260;BME280;34462;51.368;12.364;2023-06-04T12:09:52;21997.19;;;-141.84;28.12
15260;BME280;34462;51.368;12.364;2023-06-04T12:12:22;22001.28;;;-141.84;27.76
15260;BME280;34462;51.368;12.364;2023-06-04T12:14:59;21978.91;;;-141.84;27.65
15260;BME280;34462;51.368;12.364;2023-06-04T12:17:28;21972.81;;;-141.84;28.34
15260;BME280;34462;51.368;12.364;2023-06-04T12:19:57;22029.75;;;-141.84;27.94
15260;BME280;34462;51.368;12.364;2023-06-04T12:22:26;22015.50;;;-141.84;27.45
15260;BME280;34462;51.368;12.364;2023-06-04T12:24:55;22043.97;;;-141.84;26.93
15260;BME280;34462;51.368;12.364;2023-06-04T12:27:26;22043.97;;;-141.84;27.19
15260;BME280;34462;51.368;12.364;2023-06-04T12:29:56;22050.06;;;-141.84;27.45
15260;BME280;34462;51.368;12.364;2023-06-04T12:32:27;22037.88;;;-141.84;27.26
15260;BME280;34462;51.368;12.364;2023-06-04T12:34:56;22021.59;;;-141.84;27.21
15260;BME280;34462;51.368;12.364;2023-06-04T12:37:24;22031.78;;;-141.84;27.71
15260;BME280;34462;51.368;12.364;2023-06-04T12:39:54;22023.63;;;-141.84;27.71
15260;BME280;34462;51.368;12.364;2023-06-04T12:42:23;22037.88;;;-141.84;27.72
15260;BME280;34462;51.368;12.364;2023-06-04T12:44:51;22043.97;;;-141.84;27.70